Time;durP1;ratioP1;P1;durP2;ratioP2;P2;SDS_P1;SDS_P2;PMS_P1;PMS_P2;Temp;Humidity;BMP_temperature;BMP_pressure;BME280_temperature;BME280_humidity;BME280_pressure;Samples;Min_cycle;Max_cycle;Signal;HPM_P1;HPM_P2
2023/06/25 00:01:50;;;;;;;3.15;2.90;;;;;;;;;;8326040;28;20101;-61
2023/06/25 00:05:51;;;;;;;3.78;3.33;;;;;;;;;;8329672;28;20485;-61
2023/06/25 00:09:52;;;;;;;5.47;3.20;;;;;;;;;;8333324;28;20036;-61
2023/06/25 00:13:53;;;;;;;4.53;3.15;;;;;;;;;;8344844;28;20025;-61
2023/06/25 00:17:54;;;;;;;3.58;3.28;;;;;;;;;;8337289;28;20977;-61
2023/06/25 00:21:54;;;;;;;3.80;3.35;;;;;;;;;;8331124;28;20032;-61
2023/06/25 00:25:54;;;;;;;3.67;3.10;;;;;;;;;;8332340;28;20586;-61
2023/06/25 00:29:54;;;;;;;3.40;3.10;;;;;;;;;;8334608;28;20554;-61
2023/06/25 00:33:55;;;;;;;3.85;2.78;;;;;;;;;;8333260;28;20036;-61
2023/06/25 00:37:56;;;;;;;3.45;3.15;;;;;;;;;;8333384;28;20035;-61
2023/06/25 00:42:00;;;;;;;4.15;3.60;;;;;;;;;;8330716;28;20033;-61
2023/06/25 00:46:00;;;;;;;3.70;3.30;;;;;;;;;;8336636;28;20059;-61
2023/06/25 00:50:02;;;;;;;3.38;3.08;;;;;;;;;;8343041;28;20049;-61
2023/06/25 00:54:05;;;;;;;5.25;3.30;;;;;;;;;;8332647;28;20124;-62
2023/06/25 00:58:07;;;;;;;3.90;3.22;;;;;;;;;;8333338;28;20051;-61
2023/06/25 01:02:10;;;;;;;3.30;3.03;;;;;;;;;;8336802;28;20039;-61
2023/06/25 01:06:15;;;;;;;3.40;3.10;;;;;;;;;;8334321;28;20063;-61
2023/06/25 01:10:15;;;;;;;3.40;3.10;;;;;;;;;;8332261;28;20148;-61
2023/06/25 01:14:15;;;;;;;3.50;3.20;;;;;;;;;;8333061;28;20100;-61
2023/06/25 01:18:16;;;;;;;3.38;3.08;;;;;;;;;;8332017;28;20147;-61
2023/06/25 01:22:16;;;;;;;5.20;3.35;;;;;;;;;;8335937;28;20115;-61
2023/06/25 01:26:16;;;;;;;3.38;3.03;;;;;;;;;;8341335;28;20052;-61
2023/06/25 01:30:17;;;;;;;3.37;3.07;;;;;;;;;;8332940;28;20474;-61
2023/06/25 01:34:20;;;;;;;3.80;3.50;;;;;;;;;;8337146;28;20554;-61
2023/06/25 01:38:20;;;;;;;3.95;3.47;;;;;;;;;;8337424;28;20117;-61
2023/06/25 01:42:20;;;;;;;3.13;2.90;;;;;;;;;;8338160;28;20037;-61
2023/06/25 01:46:21;;;;;;;4.30;3.20;;;;;;;;;;8339577;28;20296;-61
2023/06/25 01:50:21;;;;;;;4.55;3.33;;;;;;;;;;8331784;28;20987;-61
2023/06/25 01:54:21;;;;;;;5.20;3.10;;;;;;;;;;8336837;28;20025;-61
2023/06/25 01:58:21;;;;;;;4.47;3.22;;;;;;;;;;8331468;28;20028;-61
2023/06/25 02:02:22;;;;;;;4.80;3.22;;;;;;;;;;8335502;28;20053;-61
2023/06/25 02:06:22;;;;;;;5.57;3.40;;;;;;;;;;8331355;28;20218;-61
2023/06/25 02:10:22;;;;;;;3.53;3.13;;;;;;;;;;8335204;28;20024;-61
2023/06/25 02:14:22;;;;;;;3.58;3.20;;;;;;;;;;8331804;28;20436;-61
2023/06/25 02:18:22;;;;;;;4.35;2.90;;;;;;;;;;8331787;28;20042;-60
2023/06/25 02:22:23;;;;;;;3.42;3.13;;;;;;;;;;8332343;28;20017;-60
2023/06/25 02:26:23;;;;;;;3.20;2.92;;;;;;;;;;8329550;28;20024;-60
2023/06/25 02:30:23;;;;;;;3.80;3.38;;;;;;;;;;8332035;28;20032;-61
2023/06/25 02:34:23;;;;;;;3.60;3.15;;;;;;;;;;8337345;28;20116;-61
2023/06/25 02:38:23;;;;;;;3.40;3.10;;;;;;;;;;8325165;28;20033;-60
2023/06/25 02:42:23;;;;;;;3.58;3.28;;;;;;;;;;8332035;28;20028;-60
2023/06/25 02:46:24;;;;;;;3.83;3.42;;;;;;;;;;8339089;28;20691;-61
2023/06/25 02:50:24;;;;;;;3.50;3.20;;;;;;;;;;8333051;28;20086;-60
2023/06/25 02:54:24;;;;;;;3.35;3.05;;;;;;;;;;8332835;28;20025;-60
2023/06/25 02:58:24;;;;;;;3.45;3.15;;;;;;;;;;8334102;28;20036;-61
2023/06/25 03:02:24;;;;;;;3.83;3.10;;;;;;;;;;8343676;28;20056;-60
2023/06/25 03:06:25;;;;;;;4.03;3.60;;;;;;;;;;8335563;28;20029;-60
2023/06/25 03:10:29;;;;;;;3.57;3.20;;;;;;;;;;8336069;28;20278;-61
2023/06/25 03:14:29;;;;;;;3.33;3.03;;;;;;;;;;8338295;28;20033;-60
2023/06/25 03:18:29;;;;;;;3.85;3.38;;;;;;;;;;8342839;28;20047;-60
2023/06/25 03:22:29;;;;;;;4.38;3.55;;;;;;;;;;8337571;28;20041;-60
2023/06/25 03:26:30;;;;;;;6.25;3.58;;;;;;;;;;8336671;28;21032;-60
2023/06/25 03:30:30;;;;;;;4.17;3.40;;;;;;;;;;8342328;28;20046;-61
2023/06/25 03:34:30;;;;;;;4.20;3.17;;;;;;;;;;8337195;28;20033;-60
2023/06/25 03:38:30;;;;;;;4.15;3.50;;;;;;;;;;8337432;28;20028;-61
2023/06/25 03:42:30;;;;;;;3.38;3.03;;;;;;;;;;8336371;28;20036;-60
2023/06/25 03:46:30;;;;;;;3.80;3.50;;;;;;;;;;8337880;28;20118;-60
2023/06/25 03:50:31;;;;;;;3.78;3.40;;;;;;;;;;8345645;28;20025;-60
2023/06/25 03:54:31;;;;;;;4.37;3.77;;;;;;;;;;8344528;28;20758;-60
2023/06/25 03:58:33;;;;;;;4.30;3.22;;;;;;;;;;8337063;28;20438;-60
2023/06/25 04:02:33;;;;;;;3.78;3.40;;;;;;;;;;8335131;28;20044;-60
2023/06/25 04:06:33;;;;;;;3.73;3.40;;;;;;;;;;8335957;28;20493;-60
2023/06/25 04:10:33;;;;;;;3.67;3.38;;;;;;;;;;8317872;28;20342;-60
2023/06/25 04:14:34;;;;;;;5.32;3.70;;;;;;;;;;8335747;28;20170;-60
2023/06/25 04:18:34;;;;;;;3.57;3.13;;;;;;;;;;8336274;28;20082;-61
2023/06/25 04:22:34;;;;;;;3.55;3.25;;;;;;;;;;8338842;28;20036;-60
2023/06/25 04:26:34;;;;;;;3.78;3.17;;;;;;;;;;8334643;28;20043;-60
2023/06/25 04:30:36;;;;;;;3.90;3.50;;;;;;;;;;8333292;28;20132;-60
2023/06/25 04:34:36;;;;;;;3.70;3.30;;;;;;;;;;8335571;28;20021;-60
2023/06/25 04:38:36;;;;;;;4.63;3.67;;;;;;;;;;8317315;28;20031;-60
2023/06/25 04:42:36;;;;;;;3.90;3.53;;;;;;;;;;8334615;28;20037;-60
2023/06/25 04:46:37;;;;;;;3.70;3.40;;;;;;;;;;8333796;28;20052;-61
2023/06/25 04:50:37;;;;;;;4.88;3.70;;;;;;;;;;8335649;28;20025;-61
2023/06/25 04:54:37;;;;;;;4.10;3.67;;;;;;;;;;8336147;28;20036;-60
2023/06/25 04:58:37;;;;;;;4.30;3.60;;;;;;;;;;8335966;28;20679;-60
2023/06/25 05:02:38;;;;;;;4.22;3.83;;;;;;;;;;8335134;28;20137;-60
2023/06/25 05:06:38;;;;;;;4.35;3.95;;;;;;;;;;8331969;28;20060;-60
2023/06/25 05:10:40;;;;;;;7.50;4.47;;;;;;;;;;8332638;28;20025;-61
2023/06/25 05:14:40;;;;;;;4.68;4.15;;;;;;;;;;8334210;28;20052;-60
2023/06/25 05:18:41;;;;;;;5.07;4.57;;;;;;;;;;8333321;28;20037;-60
2023/06/25 05:22:41;;;;;;;5.10;4.55;;;;;;;;;;8338973;28;20115;-61
2023/06/25 05:26:41;;;;;;;5.63;4.63;;;;;;;;;;8334385;28;20025;-60
2023/06/25 05:30:42;;;;;;;4.53;4.13;;;;;;;;;;8332731;28;20033;-60
2023/06/25 05:34:42;;;;;;;4.55;4.15;;;;;;;;;;8334632;28;20111;-60
2023/06/25 05:38:42;;;;;;;4.47;4.07;;;;;;;;;;8333604;28;20036;-60
2023/06/25 05:42:42;;;;;;;6.33;4.03;;;;;;;;;;8335324;28;20139;-61
2023/06/25 05:46:43;;;;;;;4.50;4.10;;;;;;;;;;8333902;28;20052;-61
2023/06/25 05:50:43;;;;;;;4.20;3.80;;;;;;;;;;8334744;28;20025;-61
2023/06/25 05:54:43;;;;;;;7.55;4.45;;;;;;;;;;8331629;28;20039;-60
2023/06/25 05:58:43;;;;;;;4.35;3.80;;;;;;;;;;8332858;28;20064;-60
2023/06/25 06:02:43;;;;;;;4.15;3.60;;;;;;;;;;8331568;28;20155;-61
2023/06/25 06:06:44;;;;;;;4.07;3.50;;;;;;;;;;8338982;28;20091;-60
2023/06/25 06:10:44;;;;;;;5.05;3.88;;;;;;;;;;8332938;28;20064;-61
2023/06/25 06:14:44;;;;;;;4.00;3.60;;;;;;;;;;8331984;28;20067;-60
2023/06/25 06:18:44;;;;;;;4.32;3.67;;;;;;;;;;8330598;28;20553;-60
2023/06/25 06:22:45;;;;;;;3.90;3.50;;;;;;;;;;8343739;28;20029;-60
2023/06/25 06:26:45;;;;;;;4.10;3.70;;;;;;;;;;8330655;28;20036;-61
2023/06/25 06:30:45;;;;;;;3.93;3.60;;;;;;;;;;8331140;28;20761;-61
2023/06/25 06:34:45;;;;;;;4.00;3.60;;;;;;;;;;8332160;28;20044;-61
2023/06/25 06:38:46;;;;;;;3.60;3.30;;;;;;;;;;8329031;28;20025;-61
2023/06/25 06:42:46;;;;;;;3.65;3.30;;;;;;;;;;8338281;28;20056;-60
2023/06/25 06:46:46;;;;;;;4.80;3.60;;;;;;;;;;8340851;28;20145;-61
2023/06/25 06:50:46;;;;;;;3.70;3.40;;;;;;;;;;8337264;28;20033;-61
2023/06/25 06:54:47;;;;;;;3.78;3.42;;;;;;;;;;8336656;28;20036;-60
2023/06/25 06:58:47;;;;;;;6.88;3.22;;;;;;;;;;8336310;28;20037;-61
2023/06/25 07:02:47;;;;;;;3.33;3.03;;;;;;;;;;8334335;28;20129;-61
2023/06/25 07:06:47;;;;;;;3.60;3.30;;;;;;;;;;8338646;28;20082;-61
2023/06/25 07:10:47;;;;;;;3.83;3.50;;;;;;;;;;8333877;28;20020;-60
2023/06/25 07:14:48;;;;;;;3.47;3.17;;;;;;;;;;8335506;28;20064;-61
2023/06/25 07:18:48;;;;;;;3.13;2.85;;;;;;;;;;8331619;28;20086;-61
2023/06/25 07:22:48;;;;;;;4.07;3.08;;;;;;;;;;8339176;28;20051;-61
2023/06/25 07:26:48;;;;;;;6.07;3.17;;;;;;;;;;8337948;28;20061;-60
2023/06/25 07:30:48;;;;;;;3.13;2.80;;;;;;;;;;8334327;28;20145;-61
2023/06/25 07:34:49;;;;;;;3.22;2.92;;;;;;;;;;8336404;28;20031;-61
2023/06/25 07:38:49;;;;;;;4.10;3.20;;;;;;;;;;8335360;28;20052;-61
2023/06/25 07:42:49;;;;;;;3.22;2.95;;;;;;;;;;8333516;28;20590;-61
2023/06/25 07:46:49;;;;;;;4.60;2.85;;;;;;;;;;8331037;28;20036;-61
2023/06/25 07:50:51;;;;;;;3.77;2.80;;;;;;;;;;8329867;28;20036;-61
2023/06/25 07:54:51;;;;;;;3.78;2.90;;;;;;;;;;8329935;28;20028;-61
2023/06/25 07:58:51;;;;;;;3.22;2.95;;;;;;;;;;8328421;28;20598;-61
2023/06/25 08:02:52;;;;;;;3.20;2.90;;;;;;;;;;8333553;28;20095;-60
2023/06/25 08:06:52;;;;;;;6.47;3.20;;;;;;;;;;8331777;28;20068;-60
2023/06/25 08:10:52;;;;;;;3.35;3.05;;;;;;;;;;8331835;28;20024;-61
2023/06/25 08:14:52;;;;;;;3.47;3.17;;;;;;;;;;8332765;28;20125;-61
2023/06/25 08:18:52;;;;;;;4.20;3.10;;;;;;;;;;8333942;28;21396;-61
2023/06/25 08:22:53;;;;;;;4.32;2.90;;;;;;;;;;8334076;28;20032;-61
2023/06/25 08:26:53;;;;;;;3.05;2.85;;;;;;;;;;8329049;28;20170;-61
2023/06/25 08:30:53;;;;;;;3.07;2.87;;;;;;;;;;8333067;28;20087;-61
2023/06/25 08:34:53;;;;;;;3.20;2.90;;;;;;;;;;8329902;28;20063;-61
2023/06/25 08:38:53;;;;;;;3.20;2.92;;;;;;;;;;8330874;28;20394;-61
2023/06/25 08:42:54;;;;;;;3.40;2.83;;;;;;;;;;8329171;28;20029;-61
2023/06/25 08:46:54;;;;;;;3.67;3.00;;;;;;;;;;8332188;28;20044;-61
2023/06/25 08:50:56;;;;;;;3.30;3.00;;;;;;;;;;8330052;28;20025;-61
2023/06/25 08:54:56;;;;;;;6.82;3.42;;;;;;;;;;8328788;28;20024;-60
2023/06/25 08:58:57;;;;;;;3.00;2.80;;;;;;;;;;8331287;28;20226;-61
2023/06/25 09:02:57;;;;;;;3.90;3.03;;;;;;;;;;8323498;28;20199;-61
2023/06/25 09:07:07;;;;;;;3.75;2.95;;;;;;;;;;8320316;28;20039;-61
2023/06/25 09:11:07;;;;;;;5.43;3.10;;;;;;;;;;8321573;28;20521;-61
2023/06/25 09:15:08;;;;;;;3.10;2.80;;;;;;;;;;8326711;28;20033;-61
2023/06/25 09:19:15;;;;;;;2.90;2.70;;;;;;;;;;8328963;28;20432;-61
2023/06/25 09:23:22;;;;;;;3.20;2.90;;;;;;;;;;8328900;28;20071;-61
2023/06/25 09:27:22;;;;;;;5.25;2.95;;;;;;;;;;8323329;28;20028;-61
2023/06/25 09:31:22;;;;;;;3.75;3.03;;;;;;;;;;8328837;28;20135;-60
2023/06/25 09:35:24;;;;;;;3.30;2.80;;;;;;;;;;8317221;28;21374;-61
2023/06/25 09:39:25;;;;;;;2.70;2.50;;;;;;;;;;8323202;28;20024;-61
2023/06/25 09:43:25;;;;;;;3.13;2.83;;;;;;;;;;8327361;28;20889;-61
2023/06/25 09:47:26;;;;;;;3.37;3.00;;;;;;;;;;8320298;28;20429;-61
2023/06/25 09:51:29;;;;;;;3.30;3.00;;;;;;;;;;8320246;28;20032;-60
2023/06/25 09:55:29;;;;;;;2.78;2.58;;;;;;;;;;8320107;28;20036;-61
2023/06/25 09:59:29;;;;;;;2.97;2.73;;;;;;;;;;8320462;28;20909;-61
2023/06/25 10:03:30;;;;;;;3.70;2.90;;;;;;;;;;8322145;28;20724;-61
2023/06/25 10:07:30;;;;;;;3.33;3.03;;;;;;;;;;8326607;28;20028;-61
2023/06/25 10:11:31;;;;;;;3.17;2.73;;;;;;;;;;8320834;28;20478;-61
2023/06/25 10:15:35;;;;;;;2.80;2.60;;;;;;;;;;8324358;28;20685;-61
2023/06/25 10:19:35;;;;;;;2.85;2.65;;;;;;;;;;8332548;28;20017;-61
2023/06/25 10:23:36;;;;;;;2.78;2.58;;;;;;;;;;8327133;28;20032;-61
2023/06/25 10:27:36;;;;;;;3.43;3.10;;;;;;;;;;8327091;28;20025;-61
2023/06/25 10:31:38;;;;;;;3.20;2.90;;;;;;;;;;8325607;28;20043;-61
2023/06/25 10:35:38;;;;;;;;;;;;;;;;;;8316456;28;20497;-61
2023/06/25 10:39:39;;;;;;;3.50;3.17;;;;;;;;;;8325830;28;19947;-61
2023/06/25 10:43:39;;;;;;;5.53;2.80;;;;;;;;;;8327092;28;20130;-61
2023/06/25 10:47:39;;;;;;;3.10;2.83;;;;;;;;;;8326714;28;20389;-61
2023/06/25 10:51:39;;;;;;;3.40;3.10;;;;;;;;;;8309554;28;20031;-61
2023/06/25 10:55:43;;;;;;;3.85;3.55;;;;;;;;;;8327866;28;20029;-61
2023/06/25 10:59:44;;;;;;;3.80;3.40;;;;;;;;;;8326558;28;20041;-61
2023/06/25 11:03:45;;;;;;;3.17;2.97;;;;;;;;;;8324840;28;20117;-61
2023/06/25 11:07:45;;;;;;;3.38;3.00;;;;;;;;;;8328853;28;20123;-61
2023/06/25 11:11:45;;;;;;;3.00;2.80;;;;;;;;;;8336656;28;20028;-61
2023/06/25 11:15:45;;;;;;;6.38;2.90;;;;;;;;;;8324083;28;20040;-61
2023/06/25 11:19:57;;;;;;;3.30;3.10;;;;;;;;;;8325989;28;20338;-61
2023/06/25 11:24:04;;;;;;;5.55;3.20;;;;;;;;;;8328072;28;20060;-61
2023/06/25 11:28:08;;;;;;;7.15;3.00;;;;;;;;;;8331293;28;20032;-61
2023/06/25 11:32:10;;;;;;;3.38;3.08;;;;;;;;;;8324734;28;20639;-61
2023/06/25 11:36:10;;;;;;;;;;;;;;;;;;8325605;28;20031;-61
2023/06/25 11:40:27;;;;;;;4.77;3.50;;;;;;;;;;8324925;28;19916;-61
2023/06/25 11:44:27;;;;;;;3.63;3.33;;;;;;;;;;8325187;28;20424;-61
2023/06/25 11:48:28;;;;;;;4.50;3.33;;;;;;;;;;8325114;28;20063;-61
2023/06/25 11:52:29;;;;;;;3.80;3.20;;;;;;;;;;8309617;28;20028;-61
2023/06/25 11:56:29;;;;;;;3.27;2.97;;;;;;;;;;8324482;28;20042;-61
2023/06/25 12:00:29;;;;;;;3.60;3.30;;;;;;;;;;8323355;28;20083;-61
2023/06/25 12:04:29;;;;;;;4.55;3.30;;;;;;;;;;8327178;28;20029;-61
2023/06/25 12:08:30;;;;;;;3.70;3.40;;;;;;;;;;8331499;28;20120;-61
2023/06/25 12:12:30;;;;;;;4.00;3.63;;;;;;;;;;8324843;28;20037;-61
2023/06/25 12:16:30;;;;;;;3.83;3.53;;;;;;;;;;8323749;28;20044;-61
2023/06/25 12:20:31;;;;;;;3.70;3.40;;;;;;;;;;8325670;28;20059;-61
2023/06/25 12:24:31;;;;;;;4.57;3.17;;;;;;;;;;8327500;28;20154;-61
2023/06/25 12:28:31;;;;;;;3.92;3.50;;;;;;;;;;8330837;28;20528;-61
2023/06/25 12:32:31;;;;;;;4.85;3.50;;;;;;;;;;8327401;28;20029;-61
2023/06/25 12:36:32;;;;;;;3.70;3.40;;;;;;;;;;8326568;28;20024;-61
2023/06/25 12:40:32;;;;;;;3.60;3.30;;;;;;;;;;8323388;28;20488;-61
2023/06/25 12:44:32;;;;;;;3.20;2.90;;;;;;;;;;8323112;28;20426;-61
2023/06/25 12:48:32;;;;;;;3.30;3.10;;;;;;;;;;8305528;28;20132;-61
2023/06/25 12:52:32;;;;;;;3.60;3.30;;;;;;;;;;8323843;28;20021;-61
2023/06/25 12:56:34;;;;;;;;;;;;;;;;;;8329695;28;20385;-61
2023/06/25 13:00:34;;;;;;;3.72;3.42;;;;;;;;;;8325011;28;20471;-61
2023/06/25 13:04:34;;;;;;;3.80;3.50;;;;;;;;;;8333764;28;20029;-61
2023/06/25 13:08:35;;;;;;;3.50;3.13;;;;;;;;;;8322862;28;20040;-61
2023/06/25 13:12:37;;;;;;;3.72;3.42;;;;;;;;;;8323626;28;20028;-61
2023/06/25 13:16:37;;;;;;;4.57;3.00;;;;;;;;;;8320578;28;20429;-61
2023/06/25 13:20:37;;;;;;;3.72;3.00;;;;;;;;;;8323612;28;20117;-61
2023/06/25 13:24:38;;;;;;;3.08;2.88;;;;;;;;;;8320762;28;20032;-61
2023/06/25 13:28:38;;;;;;;3.90;3.10;;;;;;;;;;8319729;28;20341;-61
2023/06/25 13:32:38;;;;;;;3.72;3.05;;;;;;;;;;8322414;28;20063;-61
2023/06/25 13:36:38;;;;;;;3.30;3.10;;;;;;;;;;8322108;28;20652;-61
2023/06/25 13:40:39;;;;;;;4.20;3.27;;;;;;;;;;8318448;28;20111;-61
2023/06/25 13:44:39;;;;;;;4.97;3.10;;;;;;;;;;8322412;28;20033;-61
2023/06/25 13:48:40;;;;;;;3.50;3.30;;;;;;;;;;8319418;28;20421;-61
2023/06/25 13:52:40;;;;;;;5.23;3.50;;;;;;;;;;8320957;28;20535;-61
2023/06/25 13:56:41;;;;;;;3.40;3.10;;;;;;;;;;8321848;28;20025;-61
2023/06/25 14:00:41;;;;;;;3.40;3.10;;;;;;;;;;8319649;28;20094;-60
2023/06/25 14:04:41;;;;;;;3.30;3.10;;;;;;;;;;8320110;28;20032;-61
2023/06/25 14:08:42;;;;;;;3.10;2.90;;;;;;;;;;8323897;28;20068;-62
2023/06/25 14:12:42;;;;;;;3.30;3.00;;;;;;;;;;8321275;28;20582;-61
2023/06/25 14:16:43;;;;;;;3.30;3.10;;;;;;;;;;8332879;28;20417;-61
2023/06/25 14:20:43;;;;;;;4.15;3.60;;;;;;;;;;8320635;28;20077;-61
2023/06/25 14:24:44;;;;;;;3.85;3.28;;;;;;;;;;8330072;28;20517;-59
2023/06/25 14:28:44;;;;;;;3.60;3.30;;;;;;;;;;8327451;28;20075;-62
2023/06/25 14:32:44;;;;;;;4.22;3.47;;;;;;;;;;8327493;28;20033;-61
2023/06/25 14:36:44;;;;;;;3.60;3.30;;;;;;;;;;8331713;28;20512;-63
2023/06/25 14:40:44;;;;;;;3.50;3.20;;;;;;;;;;8324659;28;20376;-60
2023/06/25 14:44:44;;;;;;;3.40;3.10;;;;;;;;;;8352421;28;20108;-61
2023/06/25 14:48:45;;;;;;;3.70;3.28;;;;;;;;;;8363140;28;20036;-62
2023/06/25 14:52:45;;;;;;;3.57;3.27;;;;;;;;;;8369205;28;20056;-61
2023/06/25 14:56:45;;;;;;;3.20;3.00;;;;;;;;;;8373336;28;20039;-62
2023/06/25 15:00:46;;;;;;;3.97;2.60;;;;;;;;;;8367976;28;20481;-62
2023/06/25 15:04:48;;;;;;;4.75;3.28;;;;;;;;;;8370832;28;20032;-61
2023/06/25 15:08:48;;;;;;;3.70;3.40;;;;;;;;;;8373440;28;20471;-60
2023/06/25 15:12:48;;;;;;;3.70;3.40;;;;;;;;;;8372780;28;20162;-61
2023/06/25 15:16:48;;;;;;;3.38;3.08;;;;;;;;;;8379670;28;20032;-61
2023/06/25 15:20:49;;;;;;;3.37;3.07;;;;;;;;;;8376884;28;20032;-61
2023/06/25 15:24:49;;;;;;;3.40;3.10;;;;;;;;;;8367051;28;20032;-61
2023/06/25 15:28:49;;;;;;;3.20;2.90;;;;;;;;;;8366187;28;20027;-60
2023/06/25 15:32:49;;;;;;;3.23;3.00;;;;;;;;;;8364675;28;20063;-60
2023/06/25 15:36:50;;;;;;;4.40;3.22;;;;;;;;;;8365048;28;21594;-60
2023/06/25 15:40:50;;;;;;;4.30;3.60;;;;;;;;;;8344912;28;20062;-61
2023/06/25 15:44:50;;;;;;;3.60;3.30;;;;;;;;;;8336326;28;20150;-61
2023/06/25 15:48:50;;;;;;;3.75;3.35;;;;;;;;;;8321824;28;20720;-60
2023/06/25 15:52:51;;;;;;;3.60;3.30;;;;;;;;;;8329956;28;20020;-60
2023/06/25 15:56:51;;;;;;;3.85;3.10;;;;;;;;;;8330218;28;20052;-61
2023/06/25 16:00:52;;;;;;;3.63;3.33;;;;;;;;;;8329153;28;20918;-60
2023/06/25 16:04:52;;;;;;;3.50;3.20;;;;;;;;;;8328563;28;20844;-60
2023/06/25 16:08:52;;;;;;;3.63;3.33;;;;;;;;;;8330922;28;20017;-61
2023/06/25 16:12:52;;;;;;;3.15;2.92;;;;;;;;;;8331758;28;20029;-60
2023/06/25 16:16:52;;;;;;;3.35;3.05;;;;;;;;;;8326733;28;20052;-60
2023/06/25 16:20:53;;;;;;;3.90;3.60;;;;;;;;;;8329304;28;20755;-60
2023/06/25 16:24:53;;;;;;;3.90;3.50;;;;;;;;;;8329908;28;20025;-60
2023/06/25 16:28:53;;;;;;;3.17;2.97;;;;;;;;;;8328055;28;20044;-60
2023/06/25 16:32:55;;;;;;;3.83;3.53;;;;;;;;;;8327152;28;20749;-60
2023/06/25 16:36:55;;;;;;;3.40;3.10;;;;;;;;;;8326538;28;21163;-60
2023/06/25 16:40:55;;;;;;;4.25;3.08;;;;;;;;;;8326672;28;20024;-61
2023/06/25 16:44:55;;;;;;;3.20;2.95;;;;;;;;;;8329757;28;20071;-61
2023/06/25 16:48:56;;;;;;;3.65;3.00;;;;;;;;;;8331417;28;20127;-61
2023/06/25 16:52:56;;;;;;;3.53;3.23;;;;;;;;;;8342043;28;20037;-61
2023/06/25 16:56:58;;;;;;;3.53;3.22;;;;;;;;;;8329347;28;20028;-61
2023/06/25 17:00:58;;;;;;;3.35;3.05;;;;;;;;;;8335457;28;20036;-61
2023/06/25 17:04:59;;;;;;;5.28;3.15;;;;;;;;;;8321246;28;20077;-60
2023/06/25 17:08:59;;;;;;;3.83;3.45;;;;;;;;;;8329525;28;20056;-60
2023/06/25 17:12:59;;;;;;;3.28;3.00;;;;;;;;;;8328667;28;20027;-60
2023/06/25 17:17:00;;;;;;;4.03;3.30;;;;;;;;;;8328318;28;20889;-61
2023/06/25 17:21:00;;;;;;;3.70;3.40;;;;;;;;;;8328187;28;20020;-61
2023/06/25 17:25:00;;;;;;;3.10;2.90;;;;;;;;;;8329097;28;20340;-61
2023/06/25 17:29:01;;;;;;;3.67;3.38;;;;;;;;;;8325677;28;20095;-60
2023/06/25 17:33:01;;;;;;;3.37;3.07;;;;;;;;;;8328921;28;20028;-61
2023/06/25 17:37:01;;;;;;;3.50;3.20;;;;;;;;;;8327734;28;20442;-60
2023/06/25 17:41:01;;;;;;;4.90;3.20;;;;;;;;;;8326523;28;20139;-60
2023/06/25 17:45:02;;;;;;;3.70;3.40;;;;;;;;;;8327355;28;20024;-61
2023/06/25 17:49:02;;;;;;;4.93;3.10;;;;;;;;;;8327215;28;20159;-60
2023/06/25 17:53:02;;;;;;;3.63;3.33;;;;;;;;;;8326656;28;20869;-61
2023/06/25 17:57:02;;;;;;;3.70;3.10;;;;;;;;;;8332170;28;20035;-60
2023/06/25 18:01:03;;;;;;;3.40;3.10;;;;;;;;;;8327025;28;20063;-61
2023/06/25 18:05:03;;;;;;;3.40;3.10;;;;;;;;;;8323362;28;20035;-61
2023/06/25 18:09:03;;;;;;;5.57;3.47;;;;;;;;;;8327148;28;20021;-60
2023/06/25 18:13:04;;;;;;;4.20;2.97;;;;;;;;;;8329039;28;20032;-61
2023/06/25 18:17:06;;;;;;;3.20;3.00;;;;;;;;;;8326754;28;20454;-61
2023/06/25 18:21:06;;;;;;;3.47;3.17;;;;;;;;;;8330198;28;20082;-61
2023/06/25 18:25:07;;;;;;;3.45;3.15;;;;;;;;;;8328625;28;20032;-60
2023/06/25 18:29:07;;;;;;;3.40;3.10;;;;;;;;;;8309506;28;20025;-60
2023/06/25 18:33:08;;;;;;;3.13;2.90;;;;;;;;;;8325840;28;20286;-61
2023/06/25 18:37:08;;;;;;;3.45;3.15;;;;;;;;;;8326276;28;20036;-61
2023/06/25 18:41:08;;;;;;;3.33;2.80;;;;;;;;;;8332772;28;20088;-61
2023/06/25 18:45:09;;;;;;;4.07;3.38;;;;;;;;;;8333021;28;20028;-60
2023/06/25 18:49:09;;;;;;;3.43;3.10;;;;;;;;;;8332916;28;20078;-61
2023/06/25 18:53:09;;;;;;;4.38;2.95;;;;;;;;;;8332351;28;20115;-61
2023/06/25 18:57:09;;;;;;;4.93;3.00;;;;;;;;;;8332827;28;20032;-61
2023/06/25 19:01:10;;;;;;;3.50;3.20;;;;;;;;;;8333834;28;20106;-60
2023/06/25 19:05:10;;;;;;;3.92;3.10;;;;;;;;;;8334705;28;20031;-61
2023/06/25 19:09:11;;;;;;;4.93;3.10;;;;;;;;;;8332786;28;20071;-61
2023/06/25 19:13:11;;;;;;;3.08;2.80;;;;;;;;;;8333312;28;20107;-61
2023/06/25 19:17:12;;;;;;;3.40;3.10;;;;;;;;;;8330364;28;20043;-60
2023/06/25 19:21:12;;;;;;;6.28;3.00;;;;;;;;;;8336282;28;20016;-61
2023/06/25 19:25:12;;;;;;;2.93;2.63;;;;;;;;;;8336029;28;20033;-60
2023/06/25 19:29:13;;;;;;;4.13;3.00;;;;;;;;;;8331438;28;20035;-61
2023/06/25 19:33:13;;;;;;;4.35;2.95;;;;;;;;;;8333893;28;20102;-60
2023/06/25 19:37:14;;;;;;;3.22;2.92;;;;;;;;;;8334448;28;20020;-60
2023/06/25 19:41:14;;;;;;;4.03;3.20;;;;;;;;;;8332317;28;20033;-61
2023/06/25 19:45:15;;;;;;;5.97;3.30;;;;;;;;;;8333658;28;21009;-60
2023/06/25 19:49:15;;;;;;;6.13;3.10;;;;;;;;;;8334872;28;20028;-61
2023/06/25 19:53:15;;;;;;;9.40;3.23;;;;;;;;;;8332501;28;20098;-61
2023/06/25 19:57:16;;;;;;;5.40;3.30;;;;;;;;;;8327696;28;21066;-60
2023/06/25 20:01:16;;;;;;;7.78;3.55;;;;;;;;;;8336152;28;20055;-60
2023/06/25 20:05:17;;;;;;;5.40;3.30;;;;;;;;;;8331686;28;20033;-60
2023/06/25 20:09:18;;;;;;;3.65;3.03;;;;;;;;;;8333342;28;20073;-60
2023/06/25 20:13:18;;;;;;;7.57;2.90;;;;;;;;;;8331032;28;20036;-60
2023/06/25 20:17:18;;;;;;;4.17;2.73;;;;;;;;;;8331964;28;20715;-61
2023/06/25 20:21:19;;;;;;;3.42;3.13;;;;;;;;;;8322569;28;20025;-60
2023/06/25 20:25:19;;;;;;;5.63;2.87;;;;;;;;;;8330112;28;20033;-60
2023/06/25 20:29:19;;;;;;;3.65;3.20;;;;;;;;;;8331700;28;20032;-61
2023/06/25 20:33:19;;;;;;;4.20;3.13;;;;;;;;;;8332647;28;20040;-60
2023/06/25 20:37:19;;;;;;;3.58;3.00;;;;;;;;;;8329373;28;20469;-62
2023/06/25 20:41:20;;;;;;;3.38;3.08;;;;;;;;;;8328353;28;20127;-61
2023/06/25 20:45:20;;;;;;;3.57;3.27;;;;;;;;;;8329217;28;20033;-61
2023/06/25 20:49:20;;;;;;;3.30;3.00;;;;;;;;;;8313535;28;20097;-61
2023/06/25 20:53:20;;;;;;;5.50;3.50;;;;;;;;;;8331208;28;20132;-61
2023/06/25 20:57:21;;;;;;;3.85;3.25;;;;;;;;;;8328911;28;20036;-61
2023/06/25 21:01:21;;;;;;;3.35;3.05;;;;;;;;;;8332972;28;20125;-61
2023/06/25 21:05:22;;;;;;;3.83;3.30;;;;;;;;;;8331178;28;20113;-61
2023/06/25 21:09:22;;;;;;;3.30;3.00;;;;;;;;;;8329533;28;20017;-61
2023/06/25 21:13:22;;;;;;;3.37;3.07;;;;;;;;;;8331772;28;20023;-61
2023/06/25 21:17:22;;;;;;;3.45;3.10;;;;;;;;;;8329360;28;20768;-61
2023/06/25 21:21:22;;;;;;;3.83;3.42;;;;;;;;;;8330922;28;20047;-61
2023/06/25 21:25:23;;;;;;;3.55;3.20;;;;;;;;;;8338397;28;20039;-61
2023/06/25 21:29:23;;;;;;;3.42;3.13;;;;;;;;;;8327927;28;20028;-60
2023/06/25 21:33:23;;;;;;;3.63;2.95;;;;;;;;;;8328204;28;20214;-60
2023/06/25 21:37:23;;;;;;;3.30;3.00;;;;;;;;;;8335014;28;20033;-60
2023/06/25 21:41:24;;;;;;;3.93;3.53;;;;;;;;;;8327074;28;20028;-60
2023/06/25 21:45:24;;;;;;;3.50;3.20;;;;;;;;;;8330152;28;20633;-60
2023/06/25 21:49:24;;;;;;;3.50;3.20;;;;;;;;;;8330614;28;20384;-60
2023/06/25 21:53:25;;;;;;;3.53;3.23;;;;;;;;;;8333940;28;20063;-60
2023/06/25 21:57:25;;;;;;;3.80;3.40;;;;;;;;;;8327109;28;20021;-61
2023/06/25 22:01:25;;;;;;;5.40;3.38;;;;;;;;;;8329885;28;20098;-61
2023/06/25 22:05:25;;;;;;;3.95;3.10;;;;;;;;;;8334744;28;20238;-60
2023/06/25 22:09:26;;;;;;;3.58;3.28;;;;;;;;;;8330121;28;20205;-60
2023/06/25 22:13:27;;;;;;;3.53;3.22;;;;;;;;;;8332932;28;20029;-60
2023/06/25 22:17:27;;;;;;;3.85;3.40;;;;;;;;;;8340471;28;20065;-60
2023/06/25 22:21:28;;;;;;;3.80;3.30;;;;;;;;;;8340056;28;20605;-60
2023/06/25 22:25:28;;;;;;;4.97;3.15;;;;;;;;;;8333287;28;20025;-60
2023/06/25 22:29:28;;;;;;;4.63;3.55;;;;;;;;;;8336876;28;20016;-60
2023/06/25 22:33:28;;;;;;;4.03;3.63;;;;;;;;;;8335133;28;20029;-61
2023/06/25 22:37:29;;;;;;;3.60;3.30;;;;;;;;;;8336676;28;20032;-60
2023/06/25 22:41:31;;;;;;;3.85;3.30;;;;;;;;;;8334390;28;20128;-61
2023/06/25 22:45:31;;;;;;;6.55;3.17;;;;;;;;;;8332696;28;21061;-61
2023/06/25 22:49:34;;;;;;;4.97;3.38;;;;;;;;;;8336433;28;20035;-61
2023/06/25 22:53:34;;;;;;;;;;;;;;;;;;8338624;28;20542;-61
2023/06/25 22:57:34;;;;;;;3.80;3.50;;;;;;;;;;8333745;28;19953;-61
2023/06/25 23:01:34;;;;;;;3.45;3.15;;;;;;;;;;8347681;28;20120;-61
2023/06/25 23:05:35;;;;;;;3.78;3.47;;;;;;;;;;8338605;28;20139;-61
2023/06/25 23:09:35;;;;;;;3.65;3.35;;;;;;;;;;8342727;28;20016;-61
2023/06/25 23:13:35;;;;;;;4.40;3.50;;;;;;;;;;8335285;28;20401;-61
2023/06/25 23:17:36;;;;;;;3.65;3.33;;;;;;;;;;8336983;28;20028;-61
2023/06/25 23:21:45;;;;;;;4.43;3.60;;;;;;;;;;8336279;28;20572;-61
2023/06/25 23:25:49;;;;;;;4.00;3.15;;;;;;;;;;8334301;28;20028;-61
2023/06/25 23:29:49;;;;;;;3.97;3.55;;;;;;;;;;8335226;28;20890;-61
2023/06/25 23:33:53;;;;;;;4.03;3.63;;;;;;;;;;8339781;28;20036;-60
2023/06/25 23:37:53;;;;;;;4.00;3.60;;;;;;;;;;8340632;28;20547;-61
2023/06/25 23:41:53;;;;;;;4.93;3.58;;;;;;;;;;8343460;28;20215;-60
2023/06/25 23:45:53;;;;;;;3.92;3.53;;;;;;;;;;8340562;28;20641;-61
2023/06/25 23:49:53;;;;;;;4.10;3.70;;;;;;;;;;8338026;28;20044;-61
2023/06/25 23:53:54;;;;;;;4.97;3.67;;;;;;;;;;8335514;28;20027;-61
2023/06/25 23:57:54;;;;;;;3.72;3.42;;;;;;;;;;8336558;28;20040;-61
